createdAt,value
2022-12-28T00:02:24.060Z,74.59
2022-12-28T00:04:52.405Z,74.19
2022-12-28T00:07:20.772Z,74.33
2022-12-28T00:09:50.482Z,73.68
2022-12-28T00:12:18.879Z,74.39
2022-12-28T00:14:47.641Z,74.69
2022-12-28T00:17:16.046Z,74.47
2022-12-28T00:19:44.383Z,74.22
2022-12-28T00:22:12.784Z,73.89
2022-12-28T00:24:41.162Z,73.93
2022-12-28T00:27:11.047Z,73.89
2022-12-28T00:29:39.402Z,74.22
2022-12-28T00:32:07.811Z,74.01
2022-12-28T00:34:36.200Z,74.31
2022-12-28T00:37:11.093Z,74.56
2022-12-28T00:39:42.238Z,74.67
2022-12-28T00:42:12.273Z,74.99
2022-12-28T00:44:40.761Z,75.86
2022-12-28T00:47:09.134Z,76.33
2022-12-28T00:49:37.489Z,77.28
2022-12-28T00:52:06.238Z,78.25
2022-12-28T00:54:34.609Z,79.39
2022-12-28T00:57:02.954Z,79.97
2022-12-28T00:59:32.700Z,81.11
2022-12-28T01:02:01.223Z,81.54
2022-12-28T01:04:29.822Z,82.24
2022-12-28T01:06:58.218Z,82.58
2022-12-28T01:09:26.578Z,82.93
2022-12-28T01:11:54.887Z,83.21
2022-12-28T01:14:23.238Z,83.79
2022-12-28T01:16:53.191Z,83.64
2022-12-28T01:19:23.436Z,84.44
2022-12-28T01:21:52.645Z,83.69
2022-12-28T01:24:21.155Z,83.97
2022-12-28T01:26:49.509Z,84.21
2022-12-28T01:29:18.519Z,84.61
2022-12-28T01:31:46.947Z,85.47
2022-12-28T01:34:16.722Z,85.32
2022-12-28T01:36:45.050Z,86.58
2022-12-28T01:39:13.473Z,86.26
2022-12-28T01:41:43.298Z,87.54
2022-12-28T01:44:40.853Z,87.54
2022-12-28T01:47:13.207Z,88.56
2022-12-28T01:49:47.720Z,88.96
2022-12-28T01:52:21.990Z,89.36
2022-12-28T01:54:53.508Z,89.55
2022-12-28T01:57:26.944Z,88.36
2022-12-28T02:00:00.271Z,88.10
2022-12-28T02:02:30.869Z,88.09
2022-12-28T02:05:01.844Z,88.98
2022-12-28T02:07:45.369Z,89.30
2022-12-28T02:10:43.136Z,88.95
2022-12-28T02:13:04.539Z,87.88
2022-12-28T02:15:33.210Z,88.17
2022-12-28T02:18:02.011Z,87.81
2022-12-28T02:20:41.189Z,88.75
2022-12-28T02:23:38.955Z,88.05
2022-12-28T02:26:34.054Z,87.75
2022-12-28T02:29:49.063Z,87.33
2022-12-28T02:32:37.437Z,86.80
2022-12-28T02:35:09.684Z,86.03
2022-12-28T02:37:45.759Z,85.91
2022-12-28T02:40:18.506Z,84.28
2022-12-28T02:42:47.554Z,84.09
2022-12-28T02:45:51.346Z,83.74
2022-12-28T02:48:38.445Z,83.30
2022-12-28T02:51:21.015Z,83.72
2022-12-28T02:54:05.746Z,83.26
2022-12-28T02:56:43.138Z,82.21
2022-12-28T02:59:35.751Z,82.60
2022-12-28T03:02:20.074Z,82.44
2022-12-28T03:05:01.331Z,82.01
2022-12-28T03:07:56.496Z,82.35
2022-12-28T03:10:29.832Z,81.98
2022-12-28T03:13:04.263Z,82.12
2022-12-28T03:15:37.590Z,82.32
2022-12-28T03:18:26.416Z,82.57
2022-12-28T03:21:15.295Z,83.33
2022-12-28T03:24:03.644Z,84.69
2022-12-28T03:26:52.065Z,86.07
2022-12-28T03:29:41.182Z,87.43
2022-12-28T03:32:10.395Z,87.74
2022-12-28T03:34:40.340Z,89.17
2022-12-28T03:37:14.346Z,90.62
2022-12-28T03:39:48.349Z,91.64
2022-12-28T03:42:37.531Z,92.79
2022-12-28T03:45:14.442Z,93.16
2022-12-28T03:48:04.741Z,93.88
2022-12-28T03:50:37.852Z,94.13
2022-12-28T03:53:06.542Z,94.07
2022-12-28T03:55:35.646Z,93.80
2022-12-28T03:58:04.053Z,94.65
2022-12-28T04:00:33.288Z,94.30
2022-12-28T04:03:01.681Z,94.91
2022-12-28T04:05:30.243Z,94.97
2022-12-28T04:07:59.909Z,95.29
2022-12-28T04:10:28.209Z,94.80
2022-12-28T04:12:57.525Z,95.49
2022-12-28T04:15:25.866Z,95.23
2022-12-28T04:17:54.337Z,94.89
2022-12-28T04:20:22.775Z,94.38
2022-12-28T04:22:51.095Z,94.72
2022-12-28T04:25:20.863Z,95.73
2022-12-28T04:27:49.207Z,95.41
2022-12-28T04:30:17.753Z,95.51
2022-12-28T04:32:46.074Z,95.47
2022-12-28T04:35:14.427Z,96.17
2022-12-28T04:37:42.779Z,95.60
2022-12-28T04:40:12.021Z,96.06
2022-12-28T04:42:41.832Z,96.49
2022-12-28T04:45:11.040Z,97.31
2022-12-28T04:47:39.390Z,97.74
2022-12-28T04:50:08.128Z,97.99
2022-12-28T04:52:36.443Z,98.23
2022-12-28T04:55:05.550Z,98.33
2022-12-28T04:57:33.844Z,98.93
2022-12-28T05:00:03.594Z,98.85
2022-12-28T05:02:32.581Z,99.77
2022-12-28T05:05:00.986Z,100.00
2022-12-28T05:07:29.791Z,100.00
2022-12-28T05:09:58.267Z,100.00
2022-12-28T05:12:26.797Z,100.00
2022-12-28T05:14:55.094Z,100.00
2022-12-28T05:17:24.773Z,100.00
2022-12-28T05:19:53.218Z,100.00
2022-12-28T05:22:21.682Z,100.00
2022-12-28T05:24:50.033Z,100.00
2022-12-28T05:27:18.436Z,100.00
2022-12-28T05:29:46.710Z,100.00
2022-12-28T05:32:15.184Z,100.00
2022-12-28T05:34:45.212Z,100.00
2022-12-28T05:37:20.125Z,100.00
2022-12-28T05:39:50.324Z,100.00
2022-12-28T05:42:18.654Z,100.00
2022-12-28T05:44:47.216Z,100.00
2022-12-28T05:47:15.518Z,100.00
2022-12-28T05:49:45.210Z,100.00
2022-12-28T05:52:13.682Z,100.00
2022-12-28T05:54:41.973Z,100.00
2022-12-28T05:57:10.315Z,100.00
2022-12-28T05:59:38.670Z,100.00
2022-12-28T06:02:07.029Z,100.00
2022-12-28T06:04:35.535Z,100.00
2022-12-28T06:07:05.237Z,100.00
2022-12-28T06:09:34.058Z,100.00
2022-12-28T06:12:04.692Z,100.00
2022-12-28T06:14:33.040Z,100.00
2022-12-28T06:17:01.546Z,100.00
2022-12-28T06:19:29.870Z,100.00
2022-12-28T06:21:58.444Z,100.00
2022-12-28T06:24:28.104Z,100.00
2022-12-28T06:26:56.439Z,100.00
2022-12-28T06:29:24.869Z,100.00
2022-12-28T06:31:54.664Z,100.00
2022-12-28T06:34:23.081Z,100.00
2022-12-28T06:36:52.476Z,100.00
2022-12-28T06:39:20.789Z,100.00
2022-12-28T06:41:50.638Z,100.00
2022-12-28T06:44:18.930Z,100.00
2022-12-28T06:46:47.282Z,100.00
2022-12-28T06:49:15.577Z,100.00
2022-12-28T06:51:43.888Z,100.00
2022-12-28T06:54:12.437Z,100.00
2022-12-28T06:56:41.385Z,100.00
2022-12-28T06:59:11.622Z,100.00
2022-12-28T07:01:44.386Z,100.00
2022-12-28T07:04:13.589Z,100.00
2022-12-28T07:06:44.027Z,100.00
2022-12-28T07:09:15.142Z,100.00
2022-12-28T07:11:44.287Z,100.00
2022-12-28T07:14:13.973Z,100.00
2022-12-28T07:16:44.472Z,100.00
2022-12-28T07:19:12.912Z,100.00
2022-12-28T07:21:41.581Z,100.00
2022-12-28T07:24:10.378Z,100.00
2022-12-28T07:26:39.226Z,100.00
2022-12-28T07:29:09.455Z,100.00
2022-12-28T07:31:45.125Z,100.00
2022-12-28T07:34:15.966Z,100.00
2022-12-28T07:36:44.742Z,100.00
2022-12-28T07:39:13.233Z,100.00
2022-12-28T07:41:41.820Z,100.00
2022-12-28T07:44:10.324Z,100.00
2022-12-28T07:46:40.194Z,100.00
2022-12-28T07:49:08.766Z,100.00
2022-12-28T07:51:39.405Z,100.00
2022-12-28T07:54:08.411Z,100.00
2022-12-28T07:59:06.440Z,100.00
2022-12-28T08:01:37.202Z,100.00
2022-12-28T08:04:10.064Z,100.00
2022-12-28T08:06:40.500Z,100.00
2022-12-28T08:09:10.919Z,100.00
2022-12-28T08:11:41.520Z,100.00
2022-12-28T08:14:10.542Z,100.00
2022-12-28T08:16:41.014Z,100.00
2022-12-28T08:19:11.593Z,100.00
2022-12-28T08:21:41.531Z,100.00
2022-12-28T08:24:13.756Z,100.00
2022-12-28T08:26:43.751Z,100.00
2022-12-28T08:29:14.829Z,100.00
2022-12-28T08:31:45.941Z,100.00
2022-12-28T08:34:18.856Z,100.00
2022-12-28T08:36:47.893Z,100.00
2022-12-28T08:39:16.437Z,100.00
2022-12-28T08:41:44.950Z,100.00
2022-12-28T08:44:13.395Z,100.00
2022-12-28T08:46:41.889Z,100.00
2022-12-28T08:49:10.612Z,100.00
2022-12-28T08:51:42.709Z,100.00
2022-12-28T08:54:13.550Z,100.00
2022-12-28T08:56:45.004Z,100.00
2022-12-28T08:59:16.088Z,100.00
2022-12-28T09:01:45.860Z,100.00
2022-12-28T09:04:16.294Z,100.00
2022-12-28T09:06:46.509Z,100.00
2022-12-28T09:09:16.519Z,100.00
2022-12-28T09:11:45.643Z,100.00
2022-12-28T09:14:24.446Z,100.00
2022-12-28T09:16:54.215Z,100.00
2022-12-28T09:19:23.452Z,100.00
2022-12-28T09:21:55.150Z,100.00
2022-12-28T09:24:24.068Z,100.00
2022-12-28T09:26:54.467Z,100.00
2022-12-28T09:29:23.019Z,100.00
2022-12-28T09:31:51.417Z,100.00
2022-12-28T09:34:37.357Z,100.00
2022-12-28T09:37:08.568Z,100.00
2022-12-28T09:39:37.334Z,100.00
2022-12-28T09:42:11.887Z,100.00
2022-12-28T09:44:48.629Z,100.00
2022-12-28T09:47:26.288Z,100.00
2022-12-28T09:50:07.202Z,100.00
2022-12-28T09:52:49.556Z,100.00
2022-12-28T09:55:19.861Z,100.00
2022-12-28T09:57:51.506Z,99.76
2022-12-28T10:00:22.582Z,99.24
2022-12-28T10:02:55.395Z,98.52
2022-12-28T10:05:24.405Z,98.47
2022-12-28T10:07:55.508Z,98.83
2022-12-28T10:10:25.067Z,97.55
2022-12-28T10:12:53.946Z,97.72
2022-12-28T10:15:24.070Z,97.20
2022-12-28T10:17:52.417Z,97.04
2022-12-28T10:20:23.038Z,96.19
2022-12-28T10:22:56.097Z,95.46
2022-12-28T10:25:26.137Z,95.14
2022-12-28T10:27:55.497Z,95.57
2022-12-28T10:30:26.997Z,95.09
2022-12-28T10:33:02.480Z,93.74
2022-12-28T10:35:39.125Z,94.03
2022-12-28T10:38:22.250Z,94.02
2022-12-28T10:41:00.470Z,92.41
2022-12-28T10:43:31.102Z,92.44
2022-12-28T10:46:04.517Z,91.48
2022-12-28T10:48:40.396Z,91.65
2022-12-28T10:51:14.593Z,91.58
2022-12-28T10:53:46.510Z,91.38
2022-12-28T10:56:26.175Z,89.82
2022-12-28T10:58:56.698Z,90.07
2022-12-28T11:01:27.792Z,89.30
2022-12-28T11:04:01.901Z,88.79
2022-12-28T11:06:31.600Z,88.42
2022-12-28T11:09:16.871Z,87.06
2022-12-28T11:11:47.568Z,86.36
2022-12-28T11:14:30.512Z,85.51
2022-12-28T11:16:59.373Z,85.36
2022-12-28T11:19:27.762Z,85.13
2022-12-28T11:21:56.380Z,83.93
2022-12-28T11:24:28.082Z,83.61
2022-12-28T11:26:58.928Z,83.01
2022-12-28T11:29:28.098Z,82.79
2022-12-28T11:32:02.598Z,82.43
2022-12-28T11:34:32.658Z,82.05
2022-12-28T11:37:01.408Z,82.08
2022-12-28T11:39:48.440Z,81.97
2022-12-28T11:42:50.410Z,81.75
2022-12-28T11:45:54.986Z,81.67
2022-12-28T11:48:46.292Z,81.08
2022-12-28T11:51:17.903Z,80.97
2022-12-28T11:53:54.887Z,80.55
2022-12-28T11:56:26.136Z,80.37
2022-12-28T11:59:22.909Z,80.57
2022-12-28T12:01:59.549Z,80.46
2022-12-28T12:04:41.313Z,80.41
2022-12-28T12:07:43.492Z,80.94
2022-12-28T12:10:28.946Z,81.64
2022-12-28T12:13:02.813Z,83.42
2022-12-28T12:15:41.691Z,85.54
2022-12-28T12:18:20.930Z,86.90
2022-12-28T12:21:03.221Z,88.76
2022-12-28T12:23:42.438Z,90.36
2022-12-28T12:26:22.111Z,90.94
2022-12-28T12:28:55.438Z,91.31
2022-12-28T12:31:30.554Z,91.71
2022-12-28T12:34:07.428Z,92.53
2022-12-28T12:37:13.192Z,92.65
2022-12-28T12:40:05.060Z,93.82
2022-12-28T12:42:49.935Z,93.95
2022-12-28T12:45:29.177Z,93.82
2022-12-28T12:48:14.008Z,94.00
2022-12-28T12:51:03.438Z,94.29
2022-12-28T12:53:51.835Z,94.91
2022-12-28T12:56:37.048Z,93.43
2022-12-28T12:59:23.385Z,94.14
2022-12-28T13:01:59.608Z,93.96
2022-12-28T13:04:33.362Z,93.05
2022-12-28T13:07:06.572Z,90.91
2022-12-28T13:09:37.258Z,91.23
2022-12-28T13:12:15.520Z,91.58
2022-12-28T13:14:45.539Z,89.99
2022-12-28T13:17:20.031Z,90.79
2022-12-28T13:19:49.068Z,90.91
2022-12-28T13:22:28.706Z,89.91
2022-12-28T13:24:59.809Z,90.68
2022-12-28T13:27:34.569Z,90.67
2022-12-28T13:30:04.188Z,91.02
2022-12-28T13:32:38.559Z,92.16
2022-12-28T13:35:18.702Z,92.28
2022-12-28T13:38:00.318Z,92.05
2022-12-28T13:40:30.530Z,91.79
2022-12-28T13:43:18.794Z,91.91
2022-12-28T13:45:52.921Z,91.92
2022-12-28T13:48:23.833Z,91.88
2022-12-28T13:50:53.406Z,92.48
2022-12-28T13:53:26.442Z,91.33
2022-12-28T13:55:58.282Z,91.15
2022-12-28T13:58:32.996Z,91.56
2022-12-28T14:01:08.295Z,91.67
2022-12-28T14:03:44.615Z,91.39
2022-12-28T14:06:17.295Z,91.36
2022-12-28T14:08:46.536Z,90.76
2022-12-28T14:11:15.345Z,90.02
2022-12-28T14:13:44.021Z,90.06
2022-12-28T14:16:13.065Z,88.64
2022-12-28T14:18:43.773Z,89.28
2022-12-28T14:21:12.717Z,88.29
2022-12-28T14:23:41.482Z,87.77
2022-12-28T14:26:11.799Z,87.29
2022-12-28T14:28:47.851Z,87.22
2022-12-28T14:31:27.849Z,85.89
2022-12-28T14:34:00.141Z,84.66
2022-12-28T14:36:32.148Z,84.35
2022-12-28T14:39:05.228Z,83.80
2022-12-28T14:41:37.329Z,84.73
2022-12-28T14:44:14.184Z,84.65
2022-12-28T14:46:43.816Z,83.62
2022-12-28T14:49:37.544Z,82.87
2022-12-28T14:52:34.834Z,83.75
2022-12-28T14:55:34.123Z,83.69
2022-12-28T14:58:15.393Z,82.96
2022-12-28T15:00:57.869Z,82.97
2022-12-28T15:03:29.245Z,83.35
2022-12-28T15:06:02.443Z,83.27
2022-12-28T15:08:31.345Z,84.06
2022-12-28T15:11:01.268Z,83.74
2022-12-28T15:13:29.902Z,83.94
2022-12-28T15:16:01.141Z,84.14
2022-12-28T15:18:31.052Z,83.78
2022-12-28T15:21:04.885Z,83.53
2022-12-28T15:23:33.767Z,83.26
2022-12-28T15:26:07.300Z,83.20
2022-12-28T15:28:36.082Z,82.99
2022-12-28T15:31:07.037Z,82.29
2022-12-28T15:33:36.108Z,81.16
2022-12-28T15:36:13.508Z,80.29
2022-12-28T15:38:45.993Z,79.86
2022-12-28T15:41:34.239Z,79.84
2022-12-28T15:44:03.048Z,79.35
2022-12-28T15:46:31.639Z,78.96
2022-12-28T15:49:02.958Z,78.24
2022-12-28T15:51:32.880Z,77.60
2022-12-28T15:54:01.594Z,77.38
2022-12-28T15:56:32.422Z,77.22
2022-12-28T15:59:02.712Z,77.08
2022-12-28T16:01:32.708Z,77.15
2022-12-28T16:04:03.349Z,76.47
2022-12-28T16:06:40.040Z,76.08
2022-12-28T16:09:12.826Z,75.92
2022-12-28T16:11:42.871Z,74.41
2022-12-28T16:14:15.262Z,74.38
2022-12-28T16:16:44.704Z,74.60
2022-12-28T16:19:14.683Z,73.28
2022-12-28T16:21:44.909Z,72.84
2022-12-28T16:24:13.712Z,73.04
2022-12-28T16:26:42.172Z,73.10
2022-12-28T16:29:10.760Z,72.44
2022-12-28T16:31:41.066Z,72.59
2022-12-28T16:34:12.707Z,71.94
2022-12-28T16:36:41.621Z,72.16
2022-12-28T16:39:14.714Z,72.32
2022-12-28T16:41:43.670Z,72.45
2022-12-28T16:44:15.277Z,72.02
2022-12-28T16:46:44.200Z,72.36
2022-12-28T16:49:13.252Z,72.47
2022-12-28T16:51:43.806Z,72.09
2022-12-28T16:54:16.399Z,71.55
2022-12-28T16:56:45.583Z,71.67
2022-12-28T16:59:16.291Z,71.10
2022-12-28T17:01:45.534Z,70.87
2022-12-28T17:04:14.209Z,71.18
2022-12-28T17:06:44.420Z,71.58
2022-12-28T17:09:14.935Z,71.83
2022-12-28T17:11:43.742Z,71.73
2022-12-28T17:14:13.066Z,71.63
2022-12-28T17:16:41.850Z,71.41
2022-12-28T17:19:10.375Z,71.99
2022-12-28T17:21:39.429Z,72.83
2022-12-28T17:24:08.490Z,73.50
2022-12-28T17:26:38.546Z,74.14
2022-12-28T17:29:07.317Z,75.04
2022-12-28T17:31:36.018Z,75.94
2022-12-28T17:34:05.198Z,76.66
2022-12-28T17:36:34.044Z,77.71
2022-12-28T17:39:02.512Z,77.97
2022-12-28T17:41:31.074Z,78.30
2022-12-28T17:44:02.129Z,79.19
2022-12-28T17:46:32.863Z,79.87
2022-12-28T17:49:01.603Z,80.19
2022-12-28T17:51:30.115Z,81.64
2022-12-28T17:53:58.671Z,82.30
2022-12-28T17:56:27.779Z,82.98
2022-12-28T17:58:58.464Z,83.57
2022-12-28T18:01:28.989Z,85.23
2022-12-28T18:03:58.487Z,85.51
2022-12-28T18:06:27.212Z,85.20
2022-12-28T18:08:55.692Z,86.30
2022-12-28T18:11:24.354Z,88.19
2022-12-28T18:13:56.035Z,87.69
2022-12-28T18:16:24.657Z,87.56
2022-12-28T18:18:54.848Z,88.71
2022-12-28T18:21:26.875Z,90.01
2022-12-28T18:23:55.355Z,89.81
2022-12-28T18:26:26.097Z,89.40
2022-12-28T18:28:55.109Z,90.39
2022-12-28T18:31:25.025Z,90.47
2022-12-28T18:33:55.098Z,90.02
2022-12-28T18:36:24.212Z,90.00
2022-12-28T18:38:52.739Z,90.55
2022-12-28T18:41:22.373Z,91.28
2022-12-28T18:43:52.190Z,91.19
2022-12-28T18:46:20.873Z,91.36
2022-12-28T18:48:49.550Z,92.10
2022-12-28T18:51:19.611Z,92.60
2022-12-28T18:53:50.041Z,92.61
2022-12-28T18:56:20.316Z,92.74
2022-12-28T18:58:52.879Z,93.44
2022-12-28T19:02:04.791Z,93.36
2022-12-28T19:04:12.863Z,93.25
2022-12-28T19:06:43.851Z,94.53
2022-12-28T19:09:13.201Z,94.97
2022-12-28T19:11:42.064Z,94.93
2022-12-28T19:14:15.027Z,95.27
2022-12-28T19:16:44.967Z,95.88
2022-12-28T19:19:16.819Z,96.81
2022-12-28T19:21:46.815Z,96.55
2022-12-28T19:24:16.975Z,96.39
2022-12-28T19:26:46.661Z,96.74
2022-12-28T19:29:16.592Z,97.23
2022-12-28T19:31:45.471Z,97.36
2022-12-28T19:34:15.696Z,97.63
2022-12-28T19:36:44.163Z,97.60
2022-12-28T19:39:14.034Z,98.01
2022-12-28T19:41:42.614Z,97.76
2022-12-28T19:44:11.086Z,98.28
2022-12-28T19:46:39.694Z,98.16
2022-12-28T19:49:08.227Z,98.26
2022-12-28T19:51:36.858Z,98.86
2022-12-28T19:54:05.433Z,98.55
2022-12-28T19:56:35.311Z,98.87
2022-12-28T19:59:06.970Z,99.39
2022-12-28T20:01:39.021Z,99.70
2022-12-28T20:04:13.352Z,99.32
2022-12-28T20:06:44.290Z,99.81
2022-12-28T20:09:14.062Z,99.76
2022-12-28T20:11:44.926Z,99.60
2022-12-28T20:14:19.185Z,99.47
2022-12-28T20:16:52.316Z,99.60
2022-12-28T20:19:20.772Z,99.99
2022-12-28T20:21:50.509Z,99.78
2022-12-28T20:24:21.789Z,99.75
2022-12-28T20:26:56.395Z,99.42
2022-12-28T20:29:28.471Z,99.04
2022-12-28T20:31:57.290Z,99.46
2022-12-28T20:34:26.181Z,99.24
2022-12-28T20:36:54.634Z,98.85
2022-12-28T20:39:23.128Z,98.76
2022-12-28T20:42:10.420Z,99.16
2022-12-28T20:44:39.401Z,98.70
2022-12-28T20:47:07.940Z,98.84
2022-12-28T20:49:37.103Z,98.05
2022-12-28T20:52:05.682Z,97.58
2022-12-28T20:54:34.380Z,97.57
2022-12-28T20:57:04.515Z,97.17
2022-12-28T20:59:33.863Z,96.52
2022-12-28T21:02:02.441Z,96.85
2022-12-28T21:04:31.226Z,96.82
2022-12-28T21:06:59.686Z,96.33
2022-12-28T21:09:28.302Z,96.46
2022-12-28T21:11:56.825Z,95.92
2022-12-28T21:14:26.721Z,96.15
2022-12-28T21:16:55.230Z,96.14
2022-12-28T21:19:23.920Z,96.46
2022-12-28T21:21:52.451Z,96.35
2022-12-28T21:24:20.938Z,96.09
2022-12-28T21:26:49.403Z,96.06
2022-12-28T21:29:23.858Z,95.92
2022-12-28T21:31:56.514Z,96.62
2022-12-28T21:34:27.725Z,96.26
2022-12-28T21:37:17.680Z,96.34
2022-12-28T21:39:46.526Z,96.41
2022-12-28T21:42:15.239Z,96.70
2022-12-28T21:44:43.684Z,96.53
2022-12-28T21:47:13.903Z,96.67
2022-12-28T21:49:43.929Z,96.51
2022-12-28T21:52:13.368Z,95.93
2022-12-28T21:54:45.326Z,95.09
2022-12-28T21:57:14.560Z,95.14
2022-12-28T21:59:43.631Z,95.37
2022-12-28T22:02:34.204Z,95.91
2022-12-28T22:05:18.085Z,95.13
2022-12-28T22:07:47.654Z,94.92
2022-12-28T22:10:33.993Z,95.34
2022-12-28T22:13:02.973Z,94.01
2022-12-28T22:15:49.303Z,93.35
2022-12-28T22:18:52.749Z,93.55
2022-12-28T22:21:11.722Z,93.42
2022-12-28T22:23:41.535Z,93.43
2022-12-28T22:26:14.333Z,93.19
2022-12-28T22:28:43.005Z,93.41
2022-12-28T22:31:11.430Z,93.67
2022-12-28T22:33:41.227Z,93.89
2022-12-28T22:36:11.258Z,94.89
2022-12-28T22:38:39.941Z,95.74
2022-12-28T22:41:08.873Z,96.22
2022-12-28T22:43:38.327Z,96.95
2022-12-28T22:46:09.060Z,97.21
2022-12-28T22:48:37.940Z,97.53
2022-12-28T22:51:11.643Z,97.77
2022-12-28T22:53:40.815Z,97.63
2022-12-28T22:56:12.994Z,98.47
2022-12-28T22:58:41.687Z,98.67
2022-12-28T23:01:13.240Z,98.71
2022-12-28T23:03:44.370Z,98.72
2022-12-28T23:06:16.530Z,99.04
2022-12-28T23:08:45.883Z,99.12
2022-12-28T23:11:39.441Z,99.07
2022-12-28T23:14:30.263Z,99.16
2022-12-28T23:17:00.183Z,98.86
2022-12-28T23:19:46.955Z,98.54
2022-12-28T23:22:36.321Z,98.37
2022-12-28T23:25:24.033Z,98.20
2022-12-28T23:27:52.821Z,98.01
2022-12-28T23:30:23.036Z,97.73
2022-12-28T23:32:52.632Z,97.19
2022-12-28T23:35:22.610Z,97.16
2022-12-28T23:37:52.844Z,96.64
2022-12-28T23:40:23.260Z,96.45
2022-12-28T23:42:54.000Z,95.94
2022-12-28T23:45:22.808Z,95.56
2022-12-28T23:47:53.669Z,95.25
2022-12-28T23:50:22.627Z,94.62
2022-12-28T23:52:52.435Z,93.80
2022-12-28T23:55:20.829Z,93.31
2022-12-28T23:57:49.298Z,92.95
